createdAt,value
2022-12-31T00:02:49.759Z,99.90
2022-12-31T00:07:51.630Z,99.90
2022-12-31T00:22:57.827Z,99.90
2022-12-31T00:27:59.605Z,99.90
2022-12-31T00:33:01.460Z,99.90
2022-12-31T00:38:03.172Z,99.90
2022-12-31T00:43:04.898Z,99.90
2022-12-31T00:48:06.638Z,99.90
2022-12-31T00:53:08.434Z,99.90
2022-12-31T00:58:10.152Z,99.90
2022-12-31T01:03:11.993Z,99.90
2022-12-31T01:08:13.767Z,99.90
2022-12-31T01:13:15.521Z,99.90
2022-12-31T01:18:17.375Z,99.90
2022-12-31T01:23:19.128Z,99.90
2022-12-31T01:28:20.862Z,99.90
2022-12-31T01:38:25.235Z,99.90
2022-12-31T01:44:22.713Z,99.90
2022-12-31T01:49:33.357Z,99.90
2022-12-31T01:54:40.662Z,99.90
2022-12-31T01:59:44.169Z,99.90
2022-12-31T02:04:47.077Z,99.90
2022-12-31T02:14:53.760Z,99.90
2022-12-31T02:20:20.342Z,99.90
2022-12-31T02:25:47.663Z,99.90
2022-12-31T02:30:58.140Z,99.90
2022-12-31T02:36:05.058Z,99.90
2022-12-31T02:41:33.368Z,99.90
2022-12-31T02:46:45.052Z,99.90
2022-12-31T02:51:59.217Z,99.90
2022-12-31T02:57:06.503Z,99.90
2022-12-31T03:02:15.208Z,99.90
2022-12-31T03:07:33.661Z,99.90
2022-12-31T03:12:48.336Z,99.90
2022-12-31T03:17:50.259Z,99.90
2022-12-31T03:22:52.054Z,99.90
2022-12-31T03:27:54.398Z,99.90
2022-12-31T03:32:56.798Z,99.90
2022-12-31T03:37:59.001Z,99.90
2022-12-31T03:43:00.869Z,99.90
2022-12-31T03:53:05.710Z,99.90
2022-12-31T03:58:07.553Z,99.90
2022-12-31T04:03:09.385Z,99.90
2022-12-31T04:08:11.195Z,99.90
2022-12-31T04:13:12.933Z,99.90
2022-12-31T04:18:14.625Z,99.90
2022-12-31T04:23:16.638Z,99.90
2022-12-31T04:28:18.417Z,99.90
2022-12-31T04:33:20.191Z,99.90
2022-12-31T04:38:21.976Z,99.90
2022-12-31T04:43:23.708Z,99.90
2022-12-31T04:48:25.490Z,99.90
2022-12-31T04:53:27.230Z,99.90
2022-12-31T04:58:29.006Z,99.90
2022-12-31T05:03:31.582Z,99.90
2022-12-31T05:08:33.758Z,99.90
2022-12-31T05:13:35.875Z,99.90
2022-12-31T05:18:37.964Z,99.90
2022-12-31T05:23:39.725Z,99.90
2022-12-31T05:28:41.576Z,99.90
2022-12-31T05:33:43.359Z,99.90
2022-12-31T05:38:45.122Z,99.90
2022-12-31T05:43:46.876Z,99.90
2022-12-31T05:48:48.598Z,99.90
2022-12-31T05:53:50.357Z,99.90
2022-12-31T05:58:52.125Z,99.90
2022-12-31T06:03:53.967Z,99.90
2022-12-31T06:08:55.989Z,99.90
2022-12-31T06:13:58.417Z,99.90
2022-12-31T06:19:00.605Z,99.90
2022-12-31T06:24:02.355Z,99.90
2022-12-31T06:29:04.288Z,99.90
2022-12-31T06:34:06.066Z,99.90
2022-12-31T06:39:07.925Z,99.90
2022-12-31T06:44:09.735Z,99.90
2022-12-31T06:49:11.614Z,99.90
2022-12-31T06:54:13.742Z,99.90
2022-12-31T06:59:27.637Z,99.90
2022-12-31T07:05:03.200Z,99.90
2022-12-31T07:10:36.107Z,99.90
2022-12-31T07:16:01.262Z,99.90
2022-12-31T07:21:03.529Z,99.90
2022-12-31T07:26:35.089Z,99.90
2022-12-31T07:32:01.468Z,99.90
2022-12-31T07:37:30.543Z,99.90
2022-12-31T07:42:48.574Z,99.90
2022-12-31T07:47:50.695Z,99.90
2022-12-31T07:52:52.754Z,99.90
2022-12-31T07:58:15.431Z,99.90
2022-12-31T08:03:51.509Z,99.90
2022-12-31T08:09:17.960Z,99.90
2022-12-31T08:14:20.181Z,99.90
2022-12-31T08:19:29.816Z,99.90
2022-12-31T08:24:46.436Z,99.90
2022-12-31T08:30:02.880Z,99.90
2022-12-31T08:35:23.294Z,99.90
2022-12-31T08:40:46.417Z,99.90
2022-12-31T08:45:56.746Z,99.90
2022-12-31T08:50:59.027Z,99.90
2022-12-31T08:56:20.973Z,99.90
2022-12-31T09:01:28.188Z,99.90
2022-12-31T09:06:36.202Z,99.90
2022-12-31T09:11:56.544Z,99.90
2022-12-31T09:17:26.958Z,99.90
2022-12-31T09:22:29.056Z,99.90
2022-12-31T09:27:40.083Z,99.90
2022-12-31T09:33:10.287Z,99.90
2022-12-31T09:38:30.031Z,99.90
2022-12-31T09:43:34.846Z,99.90
2022-12-31T09:49:35.547Z,99.90
2022-12-31T09:55:34.176Z,99.90
2022-12-31T10:00:52.336Z,99.90
2022-12-31T10:06:36.526Z,99.90
2022-12-31T10:11:56.915Z,99.90
2022-12-31T10:17:14.335Z,99.90
2022-12-31T10:22:34.750Z,99.90
2022-12-31T10:27:57.577Z,99.90
2022-12-31T10:33:18.333Z,99.90
2022-12-31T10:38:35.949Z,99.90
2022-12-31T10:43:59.034Z,99.90
2022-12-31T10:49:06.721Z,99.90
2022-12-31T10:54:25.335Z,99.90
2022-12-31T10:59:46.263Z,99.90
2022-12-31T11:05:12.332Z,99.90
2022-12-31T11:10:47.954Z,99.90
2022-12-31T11:16:35.131Z,99.90
2022-12-31T11:21:46.248Z,97.80
2022-12-31T11:27:06.475Z,93.80
2022-12-31T11:32:16.971Z,90.60
2022-12-31T11:37:40.766Z,90.40
2022-12-31T11:42:51.809Z,91.70
2022-12-31T11:48:29.515Z,91.30
2022-12-31T11:53:49.852Z,86.00
2022-12-31T11:58:53.856Z,83.00
2022-12-31T12:03:55.909Z,80.60
2022-12-31T12:09:04.632Z,82.50
2022-12-31T12:14:30.120Z,82.50
2022-12-31T12:19:34.247Z,81.20
2022-12-31T12:24:36.495Z,81.90
2022-12-31T12:29:40.316Z,81.60
2022-12-31T12:34:49.203Z,81.60
2022-12-31T12:40:01.021Z,87.40
2022-12-31T12:45:06.986Z,88.40
2022-12-31T12:50:16.698Z,90.10
2022-12-31T12:55:34.883Z,92.90
2022-12-31T13:00:51.834Z,93.90
2022-12-31T13:06:17.647Z,95.10
2022-12-31T13:11:26.336Z,95.10
2022-12-31T13:16:28.045Z,95.70
2022-12-31T13:21:36.951Z,96.70
2022-12-31T13:26:58.420Z,96.70
2022-12-31T13:32:04.864Z,96.90
2022-12-31T13:37:34.480Z,97.30
2022-12-31T13:43:18.028Z,97.70
2022-12-31T13:48:26.987Z,97.80
2022-12-31T13:53:28.734Z,98.60
2022-12-31T13:58:31.656Z,98.80
2022-12-31T14:03:42.468Z,99.00
2022-12-31T14:08:45.629Z,99.10
2022-12-31T14:13:59.470Z,99.90
2022-12-31T14:19:41.428Z,99.90
2022-12-31T14:24:50.664Z,99.90
2022-12-31T14:30:01.446Z,99.90
2022-12-31T14:35:21.879Z,99.90
2022-12-31T14:40:52.660Z,99.90
2022-12-31T14:46:39.261Z,99.90
2022-12-31T14:51:41.599Z,99.90
2022-12-31T14:56:45.077Z,99.90
2022-12-31T15:01:46.979Z,99.90
2022-12-31T15:07:18.411Z,99.90
2022-12-31T15:12:50.892Z,99.90
2022-12-31T15:18:22.151Z,99.90
2022-12-31T15:23:32.972Z,99.90
2022-12-31T15:28:36.213Z,99.90
2022-12-31T15:33:39.152Z,99.90
2022-12-31T15:38:42.491Z,99.90
2022-12-31T15:44:06.311Z,99.90
2022-12-31T15:49:18.175Z,99.90
2022-12-31T15:54:43.533Z,99.90
2022-12-31T15:59:46.027Z,99.90
2022-12-31T16:04:48.544Z,99.90
2022-12-31T16:09:54.066Z,99.90
2022-12-31T16:14:58.355Z,99.90
2022-12-31T16:20:02.084Z,99.90
2022-12-31T16:30:30.714Z,99.90
2022-12-31T16:35:36.409Z,99.90
2022-12-31T16:40:38.794Z,99.90
2022-12-31T16:45:41.223Z,99.90
2022-12-31T16:50:54.485Z,99.90
2022-12-31T16:56:06.459Z,99.90
2022-12-31T17:01:20.341Z,99.90
2022-12-31T17:06:23.259Z,99.90
2022-12-31T17:11:30.766Z,99.90
2022-12-31T17:16:38.484Z,99.90
2022-12-31T17:21:48.512Z,99.90
2022-12-31T17:26:51.702Z,99.90
2022-12-31T17:32:06.495Z,99.90
2022-12-31T17:42:39.651Z,99.90
2022-12-31T17:47:45.043Z,99.90
2022-12-31T17:52:47.777Z,99.90
2022-12-31T17:57:53.322Z,99.90
2022-12-31T18:18:28.248Z,99.90
2022-12-31T18:23:40.692Z,99.90
2022-12-31T18:28:42.501Z,99.90
2022-12-31T18:53:53.388Z,99.90
2022-12-31T19:03:59.875Z,99.90
2022-12-31T19:29:27.297Z,99.90
2022-12-31T20:29:53.410Z,99.90
2022-12-31T20:34:55.153Z,99.90
2022-12-31T20:55:14.542Z,99.90
2022-12-31T21:00:16.659Z,99.90
2022-12-31T21:20:25.206Z,99.90
2022-12-31T21:25:26.894Z,99.90
2022-12-31T21:40:53.192Z,99.90
2022-12-31T21:46:06.035Z,99.90
2022-12-31T21:51:14.843Z,99.90
2022-12-31T21:56:18.679Z,99.90
2022-12-31T22:01:40.821Z,99.90
2022-12-31T22:06:42.453Z,99.90
2022-12-31T22:16:46.214Z,99.90
2022-12-31T22:21:48.456Z,99.90
2022-12-31T22:26:50.989Z,99.90
2022-12-31T22:42:24.725Z,99.90
2022-12-31T22:47:26.414Z,99.90
2022-12-31T23:23:11.708Z,99.90
2022-12-31T23:28:16.792Z,99.90
2022-12-31T23:33:24.829Z,99.90
2022-12-31T23:53:37.901Z,99.90
